createdAt,value
2017-12-13T00:00:29.304Z,1010.40
2017-12-13T00:01:29.298Z,1010.39
2017-12-13T00:03:22.462Z,1010.41
2017-12-13T00:04:22.466Z,1010.40
2017-12-13T00:06:15.619Z,1010.41
2017-12-13T00:07:15.615Z,1010.41
2017-12-13T00:09:08.773Z,1010.43
2017-12-13T00:10:08.778Z,1010.41
2017-12-13T00:12:00.973Z,1010.44
2017-12-13T00:13:00.988Z,1010.42
2017-12-13T00:14:53.137Z,1010.42
2017-12-13T00:15:53.153Z,1010.40
2017-12-13T00:17:46.318Z,1010.40
2017-12-13T00:18:46.307Z,1010.38
2017-12-13T00:20:38.535Z,1010.42
2017-12-13T00:21:38.543Z,1010.39
2017-12-13T00:23:30.749Z,1010.42
2017-12-13T00:24:30.753Z,1010.45
2017-12-13T00:26:23.926Z,1010.45
2017-12-13T00:27:23.951Z,1010.44
2017-12-13T00:29:17.141Z,1010.44
2017-12-13T00:30:17.102Z,1010.40
2017-12-13T00:32:10.266Z,1010.42
2017-12-13T00:33:10.280Z,1010.47
2017-12-13T00:35:03.435Z,1010.48
2017-12-13T00:36:03.430Z,1010.48
2017-12-13T00:37:55.612Z,1010.51
2017-12-13T00:38:55.613Z,1010.55
2017-12-13T00:40:47.781Z,1010.56
2017-12-13T00:41:47.782Z,1010.55
2017-12-13T00:43:40.988Z,1010.58
2017-12-13T00:44:40.979Z,1010.61
2017-12-13T00:46:34.120Z,1010.60
2017-12-13T00:47:34.122Z,1010.64
2017-12-13T00:49:27.281Z,1010.63
2017-12-13T00:50:27.292Z,1010.62
2017-12-13T00:52:20.451Z,1010.60
2017-12-13T00:53:20.483Z,1010.56
2017-12-13T00:55:13.593Z,1010.56
2017-12-13T00:56:13.610Z,1010.55
2017-12-13T00:58:06.769Z,1010.55
2017-12-13T00:59:06.763Z,1010.59
2017-12-13T01:00:59.907Z,1010.57
2017-12-13T01:01:59.926Z,1010.54
2017-12-13T01:03:53.077Z,1010.56
2017-12-13T01:04:53.092Z,1010.57
2017-12-13T01:07:01.562Z,1010.56
2017-12-13T01:08:01.571Z,1010.58
2017-12-13T01:09:53.711Z,1010.58
2017-12-13T01:10:53.824Z,1010.61
2017-12-13T01:12:46.882Z,1010.60
2017-12-13T01:13:46.892Z,1010.61
2017-12-13T01:15:40.057Z,1010.60
2017-12-13T01:16:40.059Z,1010.63
2017-12-13T01:18:33.209Z,1010.66
2017-12-13T01:19:33.258Z,1010.64
2017-12-13T01:21:26.387Z,1010.67
2017-12-13T01:22:26.378Z,1010.68
2017-12-13T01:24:18.569Z,1010.74
2017-12-13T01:25:18.576Z,1010.73
2017-12-13T01:27:10.760Z,1010.74
2017-12-13T01:28:10.758Z,1010.81
2017-12-13T01:30:03.891Z,1010.84
2017-12-13T01:31:03.908Z,1010.83
2017-12-13T01:32:56.073Z,1010.88
2017-12-13T01:33:56.089Z,1010.92
2017-12-13T01:36:01.622Z,1010.92
2017-12-13T01:37:01.634Z,1010.94
2017-12-13T01:38:53.828Z,1010.91
2017-12-13T01:39:53.822Z,1010.92
2017-12-13T01:41:46.967Z,1010.94
2017-12-13T01:42:46.983Z,1010.96
2017-12-13T01:44:40.153Z,1010.92
2017-12-13T01:45:40.149Z,1010.96
2017-12-13T01:47:33.285Z,1010.95
2017-12-13T01:48:33.304Z,1010.95
2017-12-13T01:50:26.461Z,1010.94
2017-12-13T01:51:26.456Z,1010.93
2017-12-13T01:53:19.603Z,1010.90
2017-12-13T01:54:19.615Z,1010.96
2017-12-13T01:56:12.792Z,1010.96
2017-12-13T01:57:12.786Z,1010.94
2017-12-13T01:59:05.941Z,1010.96
2017-12-13T02:00:05.955Z,1010.96
2017-12-13T02:01:58.829Z,1011.01
2017-12-13T02:02:58.115Z,1011.01
2017-12-13T02:04:50.289Z,1011.01
2017-12-13T02:05:50.304Z,1011.04
2017-12-13T02:07:43.460Z,1011.04
2017-12-13T02:08:43.467Z,1011.03
2017-12-13T02:10:36.615Z,1011.09
2017-12-13T02:11:36.621Z,1011.11
2017-12-13T02:13:29.829Z,1011.05
2017-12-13T02:14:29.837Z,1011.06
2017-12-13T02:16:22.967Z,1011.06
2017-12-13T02:17:22.991Z,1011.08
2017-12-13T02:19:15.175Z,1011.11
2017-12-13T02:20:15.177Z,1011.07
2017-12-13T02:22:07.440Z,1011.11
2017-12-13T02:23:07.475Z,1011.10
2017-12-13T02:25:00.630Z,1011.10
2017-12-13T02:26:00.637Z,1011.10
2017-12-13T02:27:53.810Z,1011.08
2017-12-13T02:28:53.789Z,1011.11
2017-12-13T02:30:46.025Z,1011.10
2017-12-13T02:31:46.020Z,1011.09
2017-12-13T02:33:38.198Z,1011.15
2017-12-13T02:34:38.206Z,1011.15
2017-12-13T02:36:31.426Z,1011.13
2017-12-13T02:37:31.417Z,1011.11
2017-12-13T02:39:24.593Z,1011.09
2017-12-13T02:40:24.595Z,1011.10
2017-12-13T02:42:17.747Z,1011.08
2017-12-13T02:43:17.769Z,1011.15
2017-12-13T02:45:26.252Z,1011.10
2017-12-13T02:46:26.275Z,1011.10
2017-12-13T02:48:18.451Z,1011.12
2017-12-13T02:49:18.451Z,1011.12
2017-12-13T02:51:11.690Z,1011.11
2017-12-13T02:52:11.709Z,1011.12
2017-12-13T02:54:04.949Z,1011.17
2017-12-13T02:55:04.943Z,1011.14
2017-12-13T02:56:57.112Z,1011.17
2017-12-13T02:57:57.097Z,1011.11
2017-12-13T02:59:49.271Z,1011.14
2017-12-13T03:00:49.272Z,1011.15
2017-12-13T03:02:42.452Z,1011.12
2017-12-13T03:03:42.464Z,1011.08
2017-12-13T03:05:35.628Z,1011.08
2017-12-13T03:06:35.630Z,1011.07
2017-12-13T03:08:28.772Z,1011.10
2017-12-13T03:09:28.788Z,1011.08
2017-12-13T03:11:38.447Z,1011.07
2017-12-13T03:12:38.335Z,1011.09
2017-12-13T03:14:30.491Z,1011.08
2017-12-13T03:15:30.492Z,1011.10
2017-12-13T03:17:23.697Z,1011.09
2017-12-13T03:18:23.696Z,1011.08
2017-12-13T03:20:16.847Z,1011.09
2017-12-13T03:21:16.868Z,1011.09
2017-12-13T03:23:09.044Z,1011.06
2017-12-13T03:24:09.026Z,1011.04
2017-12-13T03:26:01.183Z,1011.00
2017-12-13T03:27:01.187Z,1010.98
2017-12-13T03:28:53.362Z,1010.94
2017-12-13T03:29:53.364Z,1010.89
2017-12-13T03:31:45.488Z,1010.91
2017-12-13T03:32:45.504Z,1010.90
2017-12-13T03:34:38.655Z,1010.88
2017-12-13T03:35:38.663Z,1010.88
2017-12-13T03:37:31.793Z,1010.85
2017-12-13T03:38:31.810Z,1010.80
2017-12-13T03:40:24.981Z,1010.82
2017-12-13T03:41:24.976Z,1010.81
2017-12-13T03:43:18.154Z,1010.78
2017-12-13T03:44:18.140Z,1010.77
2017-12-13T03:46:11.289Z,1010.81
2017-12-13T03:47:11.297Z,1010.80
2017-12-13T03:49:04.497Z,1010.81
2017-12-13T03:50:04.458Z,1010.79
2017-12-13T03:51:56.644Z,1010.84
2017-12-13T03:52:56.636Z,1010.86
2017-12-13T03:54:48.783Z,1010.91
2017-12-13T03:55:48.787Z,1010.92
2017-12-13T03:57:41.942Z,1010.90
2017-12-13T03:58:41.937Z,1010.87
2017-12-13T04:00:35.099Z,1010.83
2017-12-13T04:01:35.095Z,1010.82
2017-12-13T04:03:28.258Z,1010.85
2017-12-13T04:04:28.254Z,1010.85
2017-12-13T04:06:21.408Z,1010.78
2017-12-13T04:07:21.425Z,1010.84
2017-12-13T04:09:13.589Z,1010.84
2017-12-13T04:10:13.588Z,1010.82
2017-12-13T04:12:05.785Z,1010.81
2017-12-13T04:13:05.802Z,1010.82
2017-12-13T04:14:58.972Z,1010.81
2017-12-13T04:15:58.965Z,1010.81
2017-12-13T04:17:52.118Z,1010.77
2017-12-13T04:18:52.130Z,1010.79
2017-12-13T04:20:44.417Z,1010.82
2017-12-13T04:21:44.352Z,1010.78
2017-12-13T04:23:36.541Z,1010.82
2017-12-13T04:24:36.552Z,1010.82
2017-12-13T04:26:29.703Z,1010.87
2017-12-13T04:27:29.697Z,1010.81
2017-12-13T04:29:22.896Z,1010.76
2017-12-13T04:30:22.910Z,1010.80
2017-12-13T04:32:16.178Z,1010.83
2017-12-13T04:33:16.172Z,1010.84
2017-12-13T04:35:21.831Z,1010.83
2017-12-13T04:36:21.825Z,1010.83
2017-12-13T04:38:14.069Z,1010.84
2017-12-13T04:39:14.077Z,1010.83
2017-12-13T04:41:07.230Z,1010.81
2017-12-13T04:42:07.238Z,1010.78
2017-12-13T04:44:00.387Z,1010.72
2017-12-13T04:45:00.393Z,1010.72
2017-12-13T04:47:06.127Z,1010.74
2017-12-13T04:48:06.146Z,1010.75
2017-12-13T04:49:58.389Z,1010.76
2017-12-13T04:50:58.438Z,1010.71
2017-12-13T04:52:51.569Z,1010.70
2017-12-13T04:53:51.562Z,1010.73
2017-12-13T04:55:43.709Z,1010.68
2017-12-13T04:56:43.711Z,1010.73
2017-12-13T04:58:35.918Z,1010.69
2017-12-13T04:59:35.921Z,1010.68
2017-12-13T05:01:28.177Z,1010.69
2017-12-13T05:02:28.158Z,1010.68
2017-12-13T05:04:21.304Z,1010.69
2017-12-13T05:05:21.320Z,1010.63
2017-12-13T05:07:14.503Z,1010.64
2017-12-13T05:08:14.482Z,1010.61
2017-12-13T05:10:07.625Z,1010.63
2017-12-13T05:11:07.635Z,1010.64
2017-12-13T05:12:59.862Z,1010.70
2017-12-13T05:13:59.875Z,1010.65
2017-12-13T05:15:52.005Z,1010.64
2017-12-13T05:16:52.016Z,1010.64
2017-12-13T05:18:44.341Z,1010.65
2017-12-13T05:19:44.245Z,1010.62
2017-12-13T05:21:36.373Z,1010.63
2017-12-13T05:22:36.397Z,1010.60
2017-12-13T05:24:29.829Z,1010.60
2017-12-13T05:25:29.549Z,1010.62
2017-12-13T05:27:21.714Z,1010.60
2017-12-13T05:28:21.732Z,1010.61
2017-12-13T05:30:13.895Z,1010.59
2017-12-13T05:31:13.896Z,1010.57
2017-12-13T05:33:07.074Z,1010.57
2017-12-13T05:34:07.084Z,1010.57
2017-12-13T05:35:59.307Z,1010.59
2017-12-13T05:36:59.305Z,1010.57
2017-12-13T05:38:52.472Z,1010.63
2017-12-13T05:39:52.477Z,1010.63
2017-12-13T05:41:45.639Z,1010.64
2017-12-13T05:42:45.639Z,1010.63
2017-12-13T05:44:38.837Z,1010.61
2017-12-13T05:45:38.851Z,1010.61
2017-12-13T05:47:32.062Z,1010.65
2017-12-13T05:48:32.062Z,1010.59
2017-12-13T05:50:24.266Z,1010.60
2017-12-13T05:51:24.279Z,1010.60
2017-12-13T05:53:16.441Z,1010.56
2017-12-13T05:54:16.430Z,1010.57
2017-12-13T05:56:09.588Z,1010.55
2017-12-13T05:57:09.603Z,1010.59
2017-12-13T05:59:01.745Z,1010.62
2017-12-13T06:00:01.745Z,1010.60
2017-12-13T06:01:54.874Z,1010.58
2017-12-13T06:02:54.881Z,1010.53
2017-12-13T06:04:48.042Z,1010.51
2017-12-13T06:05:48.041Z,1010.46
2017-12-13T06:07:41.183Z,1010.44
2017-12-13T06:08:41.199Z,1010.41
2017-12-13T06:10:34.448Z,1010.41
2017-12-13T06:11:34.353Z,1010.39
2017-12-13T06:13:27.551Z,1010.36
2017-12-13T06:14:27.548Z,1010.35
2017-12-13T06:16:20.698Z,1010.32
2017-12-13T06:17:20.704Z,1010.33
2017-12-13T06:19:13.844Z,1010.36
2017-12-13T06:20:13.861Z,1010.32
2017-12-13T06:22:07.069Z,1010.36
2017-12-13T06:23:07.038Z,1010.34
2017-12-13T06:25:00.174Z,1010.32
2017-12-13T06:26:00.193Z,1010.25
2017-12-13T06:27:53.356Z,1010.27
2017-12-13T06:28:53.343Z,1010.27
2017-12-13T06:30:46.489Z,1010.29
2017-12-13T06:31:46.505Z,1010.31
2017-12-13T06:33:39.667Z,1010.29
2017-12-13T06:34:39.661Z,1010.32
2017-12-13T06:36:32.933Z,1010.27
2017-12-13T06:37:32.943Z,1010.33
2017-12-13T06:39:26.091Z,1010.26
2017-12-13T06:40:26.095Z,1010.27
2017-12-13T06:42:19.236Z,1010.31
2017-12-13T06:43:19.260Z,1010.30
2017-12-13T06:45:12.433Z,1010.27
2017-12-13T06:46:12.407Z,1010.30
2017-12-13T06:48:05.578Z,1010.28
2017-12-13T06:49:05.596Z,1010.30
2017-12-13T06:50:58.731Z,1010.31
2017-12-13T06:51:58.723Z,1010.31
2017-12-13T06:53:51.877Z,1010.28
2017-12-13T06:54:51.893Z,1010.25
2017-12-13T06:56:45.060Z,1010.26
2017-12-13T06:57:45.048Z,1010.29
2017-12-13T06:58:45.072Z,1010.26
2017-12-13T06:59:45.087Z,1010.22
2017-12-13T07:00:45.102Z,1010.22
2017-12-13T07:01:45.177Z,1010.23
2017-12-13T07:02:45.140Z,1010.18
2017-12-13T07:03:45.161Z,1010.21
2017-12-13T07:04:45.177Z,1010.23
2017-12-13T07:05:45.200Z,1010.24
2017-12-13T07:06:45.207Z,1010.23
2017-12-13T07:07:45.229Z,1010.23
2017-12-13T07:08:45.249Z,1010.22
2017-12-13T07:09:45.285Z,1010.23
2017-12-13T07:10:45.281Z,1010.20
2017-12-13T07:11:45.303Z,1010.19
2017-12-13T07:12:45.330Z,1010.23
2017-12-13T07:13:45.352Z,1010.22
2017-12-13T07:14:45.359Z,1010.25
2017-12-13T07:15:45.379Z,1010.20
2017-12-13T07:16:45.394Z,1010.21
2017-12-13T07:17:45.423Z,1010.23
2017-12-13T07:18:45.426Z,1010.20
2017-12-13T07:19:45.452Z,1010.21
2017-12-13T07:20:45.461Z,1010.21
2017-12-13T07:21:45.484Z,1010.20
2017-12-13T07:22:45.500Z,1010.25
2017-12-13T07:23:45.528Z,1010.18
2017-12-13T07:24:45.542Z,1010.15
2017-12-13T07:25:45.552Z,1010.13
2017-12-13T07:26:46.284Z,1010.12
2017-12-13T07:27:45.589Z,1010.09
2017-12-13T07:28:45.624Z,1010.09
2017-12-13T07:29:45.628Z,1010.08
2017-12-13T07:30:45.644Z,1010.09
2017-12-13T07:31:45.663Z,1010.01
2017-12-13T07:32:45.684Z,1010.07
2017-12-13T07:33:45.708Z,1010.03
2017-12-13T07:34:45.713Z,1010.01
2017-12-13T07:35:45.734Z,1009.97
2017-12-13T07:36:45.758Z,1009.99
2017-12-13T07:37:45.771Z,1009.97
2017-12-13T07:38:45.785Z,1009.99
2017-12-13T07:39:45.809Z,1009.97
2017-12-13T07:40:45.821Z,1009.98
2017-12-13T07:41:46.783Z,1009.97
2017-12-13T07:42:45.875Z,1009.97
2017-12-13T07:43:45.882Z,1009.96
2017-12-13T07:44:45.895Z,1009.95
2017-12-13T07:45:45.908Z,1009.97
2017-12-13T07:46:45.926Z,1009.93
2017-12-13T07:47:45.963Z,1009.91
2017-12-13T07:48:45.968Z,1009.89
2017-12-13T07:49:45.995Z,1009.90
2017-12-13T07:50:46.006Z,1009.84
2017-12-13T07:51:46.019Z,1009.87
2017-12-13T07:52:46.041Z,1009.88
2017-12-13T07:53:46.051Z,1009.85
2017-12-13T07:54:46.082Z,1009.89
2017-12-13T07:55:46.097Z,1009.95
2017-12-13T07:56:46.783Z,1009.89
2017-12-13T07:57:46.125Z,1009.91
2017-12-13T07:58:46.154Z,1009.85
2017-12-13T07:59:46.162Z,1009.84
2017-12-13T08:00:46.181Z,1009.78
2017-12-13T08:01:46.200Z,1009.77
2017-12-13T08:02:46.220Z,1009.80
2017-12-13T08:03:46.239Z,1009.77
2017-12-13T08:04:46.250Z,1009.76
2017-12-13T08:05:46.271Z,1009.71
2017-12-13T08:06:46.288Z,1009.69
2017-12-13T08:07:46.412Z,1009.73
2017-12-13T08:08:46.329Z,1009.76
2017-12-13T08:09:46.346Z,1009.76
2017-12-13T08:10:46.361Z,1009.81
2017-12-13T08:11:46.380Z,1009.78
2017-12-13T08:12:46.398Z,1009.76
2017-12-13T08:13:46.417Z,1009.78
2017-12-13T08:14:46.434Z,1009.74
2017-12-13T08:15:46.450Z,1009.74
2017-12-13T08:16:46.470Z,1009.72
2017-12-13T08:17:46.491Z,1009.74
2017-12-13T08:18:46.503Z,1009.76
2017-12-13T08:19:46.520Z,1009.71
2017-12-13T08:20:47.291Z,1009.70
2017-12-13T08:21:46.558Z,1009.65
2017-12-13T08:22:47.283Z,1009.70
2017-12-13T08:23:46.599Z,1009.65
2017-12-13T08:24:46.613Z,1009.65
2017-12-13T08:25:46.628Z,1009.60
2017-12-13T08:26:46.649Z,1009.61
2017-12-13T08:27:46.669Z,1009.59
2017-12-13T08:28:46.682Z,1009.57
2017-12-13T08:29:46.703Z,1009.58
2017-12-13T08:30:46.728Z,1009.56
2017-12-13T08:31:46.738Z,1009.55
2017-12-13T08:32:46.758Z,1009.52
2017-12-13T08:33:46.776Z,1009.50
2017-12-13T08:34:46.793Z,1009.46
2017-12-13T08:35:46.813Z,1009.40
2017-12-13T08:36:46.831Z,1009.40
2017-12-13T08:37:46.845Z,1009.39
2017-12-13T08:38:46.864Z,1009.40
2017-12-13T08:39:46.889Z,1009.36
2017-12-13T08:40:46.897Z,1009.37
2017-12-13T08:41:46.921Z,1009.41
2017-12-13T08:42:46.937Z,1009.38
2017-12-13T08:43:46.952Z,1009.34
2017-12-13T08:44:46.970Z,1009.38
2017-12-13T08:45:46.987Z,1009.33
2017-12-13T08:46:47.020Z,1009.37
2017-12-13T08:47:47.030Z,1009.42
2017-12-13T08:48:47.047Z,1009.42
2017-12-13T08:49:47.062Z,1009.39
2017-12-13T08:50:47.089Z,1009.37
2017-12-13T08:51:47.097Z,1009.33
2017-12-13T08:52:47.118Z,1009.28
2017-12-13T08:53:47.131Z,1009.30
2017-12-13T08:54:47.153Z,1009.34
2017-12-13T08:55:47.171Z,1009.31
2017-12-13T08:56:47.225Z,1009.31
2017-12-13T08:57:47.217Z,1009.31
2017-12-13T08:58:47.228Z,1009.25
2017-12-13T08:59:47.242Z,1009.21
2017-12-13T09:00:47.260Z,1009.20
2017-12-13T09:01:47.283Z,1009.19
2017-12-13T09:02:47.298Z,1009.15
2017-12-13T09:03:47.320Z,1009.14
2017-12-13T09:04:47.337Z,1009.17
2017-12-13T09:05:47.371Z,1009.10
2017-12-13T09:06:47.367Z,1009.13
2017-12-13T09:07:47.386Z,1009.08
2017-12-13T09:08:47.407Z,1009.09
2017-12-13T09:09:47.421Z,1009.03
2017-12-13T09:10:47.445Z,1009.01
2017-12-13T09:11:47.459Z,1009.05
2017-12-13T09:12:47.480Z,1009.04
2017-12-13T09:13:47.497Z,1009.08
2017-12-13T09:14:47.513Z,1009.06
2017-12-13T09:15:47.534Z,1009.07
2017-12-13T09:16:47.548Z,1009.06
2017-12-13T09:17:47.571Z,1009.03
2017-12-13T09:18:47.592Z,1009.03
2017-12-13T09:19:47.607Z,1008.97
2017-12-13T09:20:47.627Z,1009.03
2017-12-13T09:21:47.644Z,1009.00
2017-12-13T09:22:47.660Z,1008.97
2017-12-13T09:23:47.679Z,1008.89
2017-12-13T09:24:47.697Z,1008.94
2017-12-13T09:25:47.794Z,1008.95
2017-12-13T09:26:47.736Z,1008.94
2017-12-13T09:27:47.778Z,1008.99
2017-12-13T09:28:47.769Z,1008.91
2017-12-13T09:29:47.794Z,1008.91
2017-12-13T09:30:47.808Z,1008.83
2017-12-13T09:31:47.825Z,1008.79
2017-12-13T09:32:47.845Z,1008.77
2017-12-13T09:33:47.862Z,1008.72
2017-12-13T09:34:47.886Z,1008.67
2017-12-13T09:35:47.903Z,1008.69
2017-12-13T09:36:47.916Z,1008.62
2017-12-13T09:37:47.941Z,1008.64
2017-12-13T09:38:47.967Z,1008.60
2017-12-13T09:39:47.983Z,1008.50
2017-12-13T09:40:48.050Z,1008.52
2017-12-13T09:41:48.012Z,1008.46
2017-12-13T09:42:48.030Z,1008.45
2017-12-13T09:43:48.050Z,1008.43
2017-12-13T09:44:48.070Z,1008.42
2017-12-13T09:45:48.087Z,1008.42
2017-12-13T09:46:48.104Z,1008.41
2017-12-13T09:47:48.127Z,1008.42
2017-12-13T09:48:48.145Z,1008.38
2017-12-13T09:49:48.157Z,1008.37
2017-12-13T09:50:48.179Z,1008.33
2017-12-13T09:51:48.240Z,1008.30
2017-12-13T09:52:48.219Z,1008.23
2017-12-13T09:53:48.243Z,1008.28
2017-12-13T09:54:48.251Z,1008.23
2017-12-13T09:55:48.272Z,1008.33
2017-12-13T09:56:48.290Z,1008.27
2017-12-13T09:57:48.308Z,1008.28
2017-12-13T09:58:48.328Z,1008.31
2017-12-13T09:59:48.351Z,1008.21
2017-12-13T10:00:48.367Z,1008.20
2017-12-13T10:01:48.380Z,1008.18
2017-12-13T10:02:48.405Z,1008.15
2017-12-13T10:03:48.415Z,1008.13
2017-12-13T10:04:48.436Z,1008.07
2017-12-13T10:05:48.456Z,1008.08
2017-12-13T10:06:48.503Z,1008.09
2017-12-13T10:07:48.491Z,1008.07
2017-12-13T10:08:48.517Z,1008.11
2017-12-13T10:09:48.532Z,1008.06
2017-12-13T10:10:48.549Z,1008.07
2017-12-13T10:11:48.580Z,1008.10
2017-12-13T10:12:48.585Z,1008.00
2017-12-13T10:13:48.610Z,1008.06
2017-12-13T10:14:48.625Z,1008.06
2017-12-13T10:15:48.642Z,1007.96
2017-12-13T10:16:48.659Z,1008.03
2017-12-13T10:17:48.679Z,1008.03
2017-12-13T10:18:48.700Z,1008.02
2017-12-13T10:19:48.728Z,1007.99
2017-12-13T10:20:48.739Z,1007.97
2017-12-13T10:21:48.757Z,1007.95
2017-12-13T10:22:48.772Z,1007.90
2017-12-13T10:23:48.794Z,1007.86
2017-12-13T10:24:48.824Z,1007.87
2017-12-13T10:25:48.838Z,1007.75
2017-12-13T10:26:48.857Z,1007.77
2017-12-13T10:27:48.890Z,1007.78
2017-12-13T10:28:48.894Z,1007.76
2017-12-13T10:29:48.912Z,1007.74
2017-12-13T10:30:48.930Z,1007.76
2017-12-13T10:31:48.951Z,1007.70
2017-12-13T10:32:48.968Z,1007.56
2017-12-13T10:33:48.990Z,1007.58
2017-12-13T10:34:49.010Z,1007.55
2017-12-13T10:35:49.022Z,1007.55
2017-12-13T10:36:49.044Z,1007.49
2017-12-13T10:37:49.063Z,1007.52
2017-12-13T10:38:49.081Z,1007.52
2017-12-13T10:39:49.111Z,1007.49
2017-12-13T10:40:49.119Z,1007.47
2017-12-13T10:41:49.140Z,1007.43
2017-12-13T10:42:49.157Z,1007.37
2017-12-13T10:43:49.186Z,1007.33
2017-12-13T10:44:49.196Z,1007.36
2017-12-13T10:45:49.225Z,1007.30
2017-12-13T10:46:49.238Z,1007.28
2017-12-13T10:47:49.253Z,1007.24
2017-12-13T10:48:49.282Z,1007.26
2017-12-13T10:49:49.303Z,1007.24
2017-12-13T10:50:49.311Z,1007.10
2017-12-13T10:51:49.339Z,1007.13
2017-12-13T10:52:49.351Z,1007.08
2017-12-13T10:53:49.376Z,1007.08
2017-12-13T10:54:49.417Z,1007.08
2017-12-13T10:55:49.409Z,1007.04
2017-12-13T10:56:49.445Z,1007.08
2017-12-13T10:57:49.449Z,1007.03
2017-12-13T10:58:49.465Z,1006.98
2017-12-13T10:59:49.506Z,1006.95
2017-12-13T11:00:49.508Z,1006.96
2017-12-13T11:01:49.537Z,1006.93
2017-12-13T11:02:49.548Z,1006.85
2017-12-13T11:03:49.569Z,1006.83
2017-12-13T11:04:49.594Z,1006.82
2017-12-13T11:05:49.611Z,1006.76
2017-12-13T11:06:49.632Z,1006.75
2017-12-13T11:07:49.645Z,1006.60
2017-12-13T11:08:49.697Z,1006.70
2017-12-13T11:09:49.698Z,1006.61
2017-12-13T11:10:49.709Z,1006.60
2017-12-13T11:11:49.726Z,1006.61
2017-12-13T11:12:49.738Z,1006.53
2017-12-13T11:13:49.760Z,1006.46
2017-12-13T11:14:49.778Z,1006.50
2017-12-13T11:15:49.800Z,1006.50
2017-12-13T11:16:49.822Z,1006.43
2017-12-13T11:17:49.855Z,1006.44
2017-12-13T11:18:49.865Z,1006.42
2017-12-13T11:19:49.879Z,1006.34
2017-12-13T11:20:49.898Z,1006.33
2017-12-13T11:21:49.920Z,1006.26
2017-12-13T11:22:49.946Z,1006.24
2017-12-13T11:23:49.963Z,1006.25
2017-12-13T11:24:49.985Z,1006.21
2017-12-13T11:25:50.007Z,1006.20
2017-12-13T11:26:50.030Z,1006.22
2017-12-13T11:27:50.040Z,1006.12
2017-12-13T11:28:50.084Z,1006.14
2017-12-13T11:29:50.080Z,1006.11
2017-12-13T11:30:50.098Z,1006.07
2017-12-13T11:31:50.123Z,1006.04
2017-12-13T11:32:50.142Z,1006.09
2017-12-13T11:33:50.170Z,1006.04
2017-12-13T11:34:50.186Z,1006.01
2017-12-13T11:35:50.301Z,1006.01
2017-12-13T11:36:50.235Z,1005.93
2017-12-13T11:37:50.278Z,1005.99
2017-12-13T11:38:50.267Z,1005.88
2017-12-13T11:39:50.300Z,1005.86
2017-12-13T11:40:50.311Z,1005.86
2017-12-13T11:41:50.340Z,1005.77
2017-12-13T11:42:50.351Z,1005.76
2017-12-13T11:43:50.374Z,1005.81
2017-12-13T11:44:50.398Z,1005.83
2017-12-13T11:45:50.426Z,1005.81
2017-12-13T11:46:50.443Z,1005.76
2017-12-13T11:47:50.466Z,1005.71
2017-12-13T11:48:50.494Z,1005.73
2017-12-13T11:49:50.512Z,1005.67
2017-12-13T11:50:50.532Z,1005.61
2017-12-13T11:51:50.561Z,1005.58
2017-12-13T11:52:50.593Z,1005.56
2017-12-13T11:53:50.609Z,1005.54
2017-12-13T11:54:50.628Z,1005.55
2017-12-13T11:55:50.666Z,1005.53
2017-12-13T11:56:50.673Z,1005.47
2017-12-13T11:57:50.694Z,1005.46
2017-12-13T11:58:50.720Z,1005.46
2017-12-13T11:59:50.744Z,1005.36
2017-12-13T12:00:50.766Z,1005.41
2017-12-13T12:01:50.793Z,1005.32
2017-12-13T12:02:50.811Z,1005.30
2017-12-13T12:03:50.838Z,1005.26
2017-12-13T12:04:50.864Z,1005.18
2017-12-13T12:05:50.885Z,1005.23
2017-12-13T12:06:50.917Z,1005.24
2017-12-13T12:07:50.934Z,1005.19
2017-12-13T12:08:50.965Z,1005.14
2017-12-13T12:09:50.984Z,1005.11
2017-12-13T12:10:51.001Z,1005.06
2017-12-13T12:11:51.035Z,1005.08
2017-12-13T12:12:51.050Z,1005.05
2017-12-13T12:13:51.084Z,1005.05
2017-12-13T12:14:51.100Z,1005.04
2017-12-13T12:15:51.126Z,1004.98
2017-12-13T12:16:51.143Z,1004.99
2017-12-13T12:17:51.174Z,1004.90
2017-12-13T12:18:51.197Z,1004.95
2017-12-13T12:19:51.217Z,1004.92
2017-12-13T12:20:51.241Z,1004.82
2017-12-13T12:21:51.262Z,1004.82
2017-12-13T12:22:51.291Z,1004.80
2017-12-13T12:23:51.309Z,1004.74
2017-12-13T12:24:51.339Z,1004.71
2017-12-13T12:25:51.355Z,1004.68
2017-12-13T12:26:51.402Z,1004.74
2017-12-13T12:27:51.399Z,1004.69
2017-12-13T12:28:51.434Z,1004.66
2017-12-13T12:29:51.444Z,1004.60
2017-12-13T12:30:51.467Z,1004.66
2017-12-13T12:31:51.489Z,1004.66
2017-12-13T12:32:51.512Z,1004.58
2017-12-13T12:33:51.537Z,1004.61
2017-12-13T12:34:51.557Z,1004.56
2017-12-13T12:35:51.588Z,1004.59
2017-12-13T12:36:51.599Z,1004.50
2017-12-13T12:37:51.637Z,1004.52
2017-12-13T12:38:51.647Z,1004.54
2017-12-13T12:39:51.687Z,1004.57
2017-12-13T12:40:51.687Z,1004.55
2017-12-13T12:41:51.705Z,1004.54
2017-12-13T12:42:51.741Z,1004.51
2017-12-13T12:43:51.747Z,1004.47
2017-12-13T12:44:51.772Z,1004.45
2017-12-13T12:45:52.300Z,1004.35
2017-12-13T12:46:51.812Z,1004.34
2017-12-13T12:47:51.839Z,1004.28
2017-12-13T12:48:51.859Z,1004.24
2017-12-13T12:49:51.876Z,1004.14
2017-12-13T12:50:51.897Z,1004.11
2017-12-13T12:51:51.915Z,1004.08
2017-12-13T12:52:51.955Z,1004.01
2017-12-13T12:53:51.967Z,1004.02
2017-12-13T12:54:51.983Z,1004.03
2017-12-13T12:55:51.998Z,1004.00
2017-12-13T12:56:52.798Z,1004.04
2017-12-13T12:57:52.043Z,1003.96
2017-12-13T12:58:52.064Z,1003.82
2017-12-13T12:59:52.092Z,1003.86
2017-12-13T13:00:52.104Z,1003.82
2017-12-13T13:01:52.129Z,1003.83
2017-12-13T13:02:52.149Z,1003.77
2017-12-13T13:03:52.162Z,1003.71
2017-12-13T13:04:52.195Z,1003.81
2017-12-13T13:05:52.212Z,1003.77
2017-12-13T13:06:52.228Z,1003.70
2017-12-13T13:07:52.254Z,1003.64
2017-12-13T13:08:52.267Z,1003.65
2017-12-13T13:09:52.303Z,1003.57
2017-12-13T13:10:52.306Z,1003.57
2017-12-13T13:11:52.329Z,1003.48
2017-12-13T13:12:52.353Z,1003.51
2017-12-13T13:13:52.370Z,1003.51
2017-12-13T13:14:52.387Z,1003.41
2017-12-13T13:15:52.414Z,1003.49
2017-12-13T13:16:52.431Z,1003.39
2017-12-13T13:17:52.450Z,1003.35
2017-12-13T13:18:52.471Z,1003.27
2017-12-13T13:19:52.490Z,1003.24
2017-12-13T13:20:52.515Z,1003.23
2017-12-13T13:21:52.527Z,1003.22
2017-12-13T13:22:52.576Z,1003.17
2017-12-13T13:23:52.570Z,1003.16
2017-12-13T13:24:52.612Z,1003.15
2017-12-13T13:25:52.609Z,1003.10
2017-12-13T13:26:52.631Z,1002.99
2017-12-13T13:27:52.656Z,1002.99
2017-12-13T13:28:52.672Z,1003.00
2017-12-13T13:29:52.693Z,1002.97
2017-12-13T13:30:52.711Z,1002.90
2017-12-13T13:31:52.735Z,1002.87
2017-12-13T13:32:52.753Z,1002.90
2017-12-13T13:33:52.777Z,1002.94
2017-12-13T13:34:52.794Z,1002.90
2017-12-13T13:35:52.817Z,1002.83
2017-12-13T13:36:52.830Z,1002.84
2017-12-13T13:37:52.848Z,1002.83
2017-12-13T13:38:52.872Z,1002.80
2017-12-13T13:39:52.895Z,1002.76
2017-12-13T13:40:52.910Z,1002.73
2017-12-13T13:41:52.937Z,1002.68
2017-12-13T13:42:52.952Z,1002.73
2017-12-13T13:43:52.970Z,1002.74
2017-12-13T13:44:52.990Z,1002.67
2017-12-13T13:45:53.017Z,1002.67
2017-12-13T13:46:53.039Z,1002.69
2017-12-13T13:47:53.051Z,1002.70
2017-12-13T13:48:53.075Z,1002.67
2017-12-13T13:49:53.101Z,1002.64
2017-12-13T13:50:53.113Z,1002.72
2017-12-13T13:51:53.128Z,1002.64
2017-12-13T13:52:53.149Z,1002.64
2017-12-13T13:53:53.194Z,1002.64
2017-12-13T13:54:53.189Z,1002.60
2017-12-13T13:55:53.214Z,1002.62
2017-12-13T13:56:53.233Z,1002.59
2017-12-13T13:57:53.258Z,1002.59
2017-12-13T13:58:53.266Z,1002.54
2017-12-13T13:59:53.296Z,1002.53
2017-12-13T14:00:53.312Z,1002.49
2017-12-13T14:01:53.331Z,1002.48
2017-12-13T14:02:53.346Z,1002.51
2017-12-13T14:03:53.370Z,1002.42
2017-12-13T14:04:53.389Z,1002.41
2017-12-13T14:05:53.408Z,1002.37
2017-12-13T14:06:53.449Z,1002.37
2017-12-13T14:07:53.447Z,1002.34
2017-12-13T14:08:53.474Z,1002.36
2017-12-13T14:09:53.495Z,1002.26
2017-12-13T14:10:53.508Z,1002.26
2017-12-13T14:11:53.529Z,1002.23
2017-12-13T14:12:53.548Z,1002.21
2017-12-13T14:13:53.565Z,1002.14